sensor_id;sensor_type;location;lat;lon;timestamp;P1;durP1;ratioP1;P2;durP2;ratioP2
22160;SDS011;49035;48.812;11.762;2022-09-12T00:01:37;31.63;;;9.95;;
22160;SDS011;49035;48.812;11.762;2022-09-12T00:04:02;11.25;;;9.38;;
22160;SDS011;49035;48.812;11.762;2022-09-12T00:06:31;12.80;;;9.70;;
22160;SDS011;49035;48.812;11.762;2022-09-12T00:09:00;13.70;;;9.38;;
22160;SDS011;49035;48.812;11.762;2022-09-12T00:11:28;11.43;;;8.95;;
22160;SDS011;49035;48.812;11.762;2022-09-12T00:13:55;12.40;;;9.60;;
22160;SDS011;49035;48.812;11.762;2022-09-12T00:16:23;12.45;;;9.68;;
22160;SDS011;49035;48.812;11.762;2022-09-12T00:18:50;12.07;;;9.38;;
22160;SDS011;49035;48.812;11.762;2022-09-12T00:21:17;14.48;;;11.57;;
22160;SDS011;49035;48.812;11.762;2022-09-12T00:23:44;17.50;;;11.85;;
22160;SDS011;49035;48.812;11.762;2022-09-12T00:26:10;17.05;;;12.98;;
22160;SDS011;49035;48.812;11.762;2022-09-12T00:28:37;16.13;;;11.77;;
22160;SDS011;49035;48.812;11.762;2022-09-12T00:31:08;17.52;;;12.77;;
22160;SDS011;49035;48.812;11.762;2022-09-12T00:33:36;15.68;;;11.60;;
22160;SDS011;49035;48.812;11.762;2022-09-12T00:36:09;16.67;;;11.65;;
22160;SDS011;49035;48.812;11.762;2022-09-12T00:38:40;16.95;;;11.88;;
22160;SDS011;49035;48.812;11.762;2022-09-12T00:41:08;15.57;;;11.77;;
22160;SDS011;49035;48.812;11.762;2022-09-12T00:43:40;13.63;;;10.85;;
22160;SDS011;49035;48.812;11.762;2022-09-12T00:49:41;18.77;;;10.75;;
22160;SDS011;49035;48.812;11.762;2022-09-12T00:51:51;13.10;;;10.25;;
22160;SDS011;49035;48.812;11.762;2022-09-12T00:54:20;15.75;;;11.50;;
22160;SDS011;49035;48.812;11.762;2022-09-12T00:56:49;15.43;;;10.13;;
22160;SDS011;49035;48.812;11.762;2022-09-12T00:59:30;14.45;;;10.68;;
22160;SDS011;49035;48.812;11.762;2022-09-12T01:01:59;11.57;;;9.75;;
22160;SDS011;49035;48.812;11.762;2022-09-12T01:04:25;14.00;;;10.60;;
22160;SDS011;49035;48.812;11.762;2022-09-12T01:06:52;14.10;;;10.73;;
22160;SDS011;49035;48.812;11.762;2022-09-12T01:09:21;12.50;;;10.23;;
22160;SDS011;49035;48.812;11.762;2022-09-12T01:11:49;14.75;;;10.95;;
22160;SDS011;49035;48.812;11.762;2022-09-12T01:14:17;16.45;;;11.43;;
22160;SDS011;49035;48.812;11.762;2022-09-12T01:16:43;15.90;;;11.57;;
22160;SDS011;49035;48.812;11.762;2022-09-12T01:22:04;51.40;;;12.60;;
22160;SDS011;49035;48.812;11.762;2022-09-12T01:33:02;29.48;;;10.63;;
22160;SDS011;49035;48.812;11.762;2022-09-12T01:38:37;17.13;;;10.52;;
22160;SDS011;49035;48.812;11.762;2022-09-12T01:41:12;29.35;;;10.82;;
22160;SDS011;49035;48.812;11.762;2022-09-12T01:43:46;30.52;;;11.80;;
22160;SDS011;49035;48.812;11.762;2022-09-12T01:46:23;12.73;;;9.38;;
22160;SDS011;49035;48.812;11.762;2022-09-12T01:51:55;13.55;;;9.45;;
22160;SDS011;49035;48.812;11.762;2022-09-12T01:54:34;36.08;;;11.75;;
22160;SDS011;49035;48.812;11.762;2022-09-12T01:57:34;13.75;;;9.82;;
22160;SDS011;49035;48.812;11.762;2022-09-12T02:00:23;139.60;;;14.10;;
22160;SDS011;49035;48.812;11.762;2022-09-12T02:02:50;13.10;;;9.68;;
22160;SDS011;49035;48.812;11.762;2022-09-12T02:05:24;15.88;;;9.70;;
22160;SDS011;49035;48.812;11.762;2022-09-12T02:08:15;12.35;;;9.55;;
22160;SDS011;49035;48.812;11.762;2022-09-12T02:10:55;14.30;;;9.90;;
22160;SDS011;49035;48.812;11.762;2022-09-12T02:13:29;25.85;;;10.32;;
22160;SDS011;49035;48.812;11.762;2022-09-12T02:15:59;15.48;;;9.90;;
22160;SDS011;49035;48.812;11.762;2022-09-12T02:18:29;69.53;;;10.98;;
22160;SDS011;49035;48.812;11.762;2022-09-12T02:20:58;35.92;;;10.85;;
22160;SDS011;49035;48.812;11.762;2022-09-12T02:23:26;11.45;;;9.48;;
22160;SDS011;49035;48.812;11.762;2022-09-12T02:25:56;35.30;;;10.27;;
22160;SDS011;49035;48.812;11.762;2022-09-12T02:28:28;10.90;;;8.75;;
22160;SDS011;49035;48.812;11.762;2022-09-12T02:34:08;70.22;;;10.73;;
22160;SDS011;49035;48.812;11.762;2022-09-12T02:39:31;29.45;;;9.60;;
22160;SDS011;49035;48.812;11.762;2022-09-12T02:41:57;14.07;;;9.48;;
22160;SDS011;49035;48.812;11.762;2022-09-12T02:44:25;33.70;;;9.95;;
22160;SDS011;49035;48.812;11.762;2022-09-12T02:46:56;11.60;;;8.90;;
22160;SDS011;49035;48.812;11.762;2022-09-12T02:49:27;69.38;;;10.93;;
22160;SDS011;49035;48.812;11.762;2022-09-12T02:51:53;10.57;;;8.88;;
22160;SDS011;49035;48.812;11.762;2022-09-12T02:54:19;32.20;;;10.15;;
22160;SDS011;49035;48.812;11.762;2022-09-12T02:56:45;10.13;;;8.40;;
22160;SDS011;49035;48.812;11.762;2022-09-12T02:59:12;24.35;;;9.23;;
22160;SDS011;49035;48.812;11.762;2022-09-12T03:07:25;10.50;;;7.88;;
22160;SDS011;49035;48.812;11.762;2022-09-12T03:10:02;169.68;;;16.17;;
22160;SDS011;49035;48.812;11.762;2022-09-12T03:21:01;25.00;;;9.27;;
22160;SDS011;49035;48.812;11.762;2022-09-12T03:24:07;13.95;;;9.45;;
22160;SDS011;49035;48.812;11.762;2022-09-12T03:26:47;23.23;;;11.15;;
22160;SDS011;49035;48.812;11.762;2022-09-12T03:29:19;13.23;;;10.55;;
22160;SDS011;49035;48.812;11.762;2022-09-12T03:31:50;51.72;;;11.15;;
22160;SDS011;49035;48.812;11.762;2022-09-12T03:34:17;23.83;;;11.25;;
22160;SDS011;49035;48.812;11.762;2022-09-12T03:36:44;13.32;;;9.18;;
22160;SDS011;49035;48.812;11.762;2022-09-12T03:39:10;12.80;;;9.63;;
22160;SDS011;49035;48.812;11.762;2022-09-12T03:41:37;16.48;;;10.57;;
22160;SDS011;49035;48.812;11.762;2022-09-12T03:44:03;27.98;;;11.05;;
22160;SDS011;49035;48.812;11.762;2022-09-12T03:46:28;15.20;;;11.43;;
22160;SDS011;49035;48.812;11.762;2022-09-12T03:48:54;23.58;;;11.57;;
22160;SDS011;49035;48.812;11.762;2022-09-12T03:51:20;16.58;;;9.77;;
22160;SDS011;49035;48.812;11.762;2022-09-12T03:53:45;13.38;;;9.77;;
22160;SDS011;49035;48.812;11.762;2022-09-12T03:56:11;12.40;;;9.40;;
22160;SDS011;49035;48.812;11.762;2022-09-12T03:58:37;11.85;;;9.65;;
22160;SDS011;49035;48.812;11.762;2022-09-12T04:01:08;10.93;;;8.57;;
22160;SDS011;49035;48.812;11.762;2022-09-12T04:03:41;10.88;;;8.45;;
22160;SDS011;49035;48.812;11.762;2022-09-12T04:06:08;11.23;;;9.20;;
22160;SDS011;49035;48.812;11.762;2022-09-12T04:08:36;14.10;;;10.80;;
22160;SDS011;49035;48.812;11.762;2022-09-12T04:11:05;34.38;;;11.55;;
22160;SDS011;49035;48.812;11.762;2022-09-12T04:13:37;56.65;;;11.48;;
22160;SDS011;49035;48.812;11.762;2022-09-12T04:16:04;13.15;;;9.63;;
22160;SDS011;49035;48.812;11.762;2022-09-12T04:18:31;15.77;;;10.38;;
22160;SDS011;49035;48.812;11.762;2022-09-12T04:20:57;12.40;;;9.85;;
22160;SDS011;49035;48.812;11.762;2022-09-12T04:23:23;11.65;;;8.90;;
22160;SDS011;49035;48.812;11.762;2022-09-12T04:25:52;49.85;;;11.30;;
22160;SDS011;49035;48.812;11.762;2022-09-12T04:28:21;11.95;;;9.45;;
22160;SDS011;49035;48.812;11.762;2022-09-12T04:30:47;15.95;;;10.50;;
22160;SDS011;49035;48.812;11.762;2022-09-12T04:33:13;54.25;;;11.75;;
22160;SDS011;49035;48.812;11.762;2022-09-12T04:35:39;48.63;;;11.55;;
22160;SDS011;49035;48.812;11.762;2022-09-12T04:38:05;42.13;;;11.30;;
22160;SDS011;49035;48.812;11.762;2022-09-12T04:40:32;13.15;;;9.00;;
22160;SDS011;49035;48.812;11.762;2022-09-12T04:42:57;16.60;;;10.18;;
22160;SDS011;49035;48.812;11.762;2022-09-12T04:45:23;17.00;;;10.57;;
22160;SDS011;49035;48.812;11.762;2022-09-12T04:47:49;16.40;;;10.77;;
22160;SDS011;49035;48.812;11.762;2022-09-12T04:50:14;31.98;;;11.95;;
22160;SDS011;49035;48.812;11.762;2022-09-12T04:52:40;22.67;;;10.85;;
22160;SDS011;49035;48.812;11.762;2022-09-12T04:55:06;14.55;;;10.20;;
22160;SDS011;49035;48.812;11.762;2022-09-12T04:57:32;15.45;;;10.80;;
22160;SDS011;49035;48.812;11.762;2022-09-12T04:59:59;16.55;;;10.77;;
22160;SDS011;49035;48.812;11.762;2022-09-12T05:02:25;15.60;;;10.95;;
22160;SDS011;49035;48.812;11.762;2022-09-12T05:04:51;84.03;;;13.68;;
22160;SDS011;49035;48.812;11.762;2022-09-12T05:07:17;21.98;;;11.90;;
22160;SDS011;49035;48.812;11.762;2022-09-12T05:09:43;17.63;;;11.23;;
22160;SDS011;49035;48.812;11.762;2022-09-12T05:12:09;29.38;;;12.13;;
22160;SDS011;49035;48.812;11.762;2022-09-12T05:14:36;26.98;;;11.88;;
22160;SDS011;49035;48.812;11.762;2022-09-12T05:17:02;29.63;;;12.20;;
22160;SDS011;49035;48.812;11.762;2022-09-12T05:19:30;74.43;;;13.23;;
22160;SDS011;49035;48.812;11.762;2022-09-12T05:21:56;18.35;;;10.82;;
22160;SDS011;49035;48.812;11.762;2022-09-12T05:24:23;28.75;;;11.65;;
22160;SDS011;49035;48.812;11.762;2022-09-12T05:26:49;17.90;;;11.02;;
22160;SDS011;49035;48.812;11.762;2022-09-12T05:29:14;16.63;;;11.40;;
22160;SDS011;49035;48.812;11.762;2022-09-12T05:31:40;34.47;;;12.60;;
22160;SDS011;49035;48.812;11.762;2022-09-12T05:34:06;27.27;;;12.32;;
22160;SDS011;49035;48.812;11.762;2022-09-12T05:36:32;17.38;;;10.90;;
22160;SDS011;49035;48.812;11.762;2022-09-12T05:38:58;22.15;;;12.20;;
22160;SDS011;49035;48.812;11.762;2022-09-12T05:41:25;33.33;;;11.88;;
22160;SDS011;49035;48.812;11.762;2022-09-12T05:43:54;20.63;;;12.05;;
22160;SDS011;49035;48.812;11.762;2022-09-12T05:46:22;17.10;;;11.65;;
22160;SDS011;49035;48.812;11.762;2022-09-12T05:48:49;16.50;;;11.77;;
22160;SDS011;49035;48.812;11.762;2022-09-12T05:51:26;66.25;;;13.85;;
22160;SDS011;49035;48.812;11.762;2022-09-12T05:53:54;97.53;;;12.85;;
22160;SDS011;49035;48.812;11.762;2022-09-12T05:56:25;18.42;;;10.60;;
22160;SDS011;49035;48.812;11.762;2022-09-12T05:58:53;90.15;;;14.32;;
22160;SDS011;49035;48.812;11.762;2022-09-12T06:01:21;31.73;;;13.48;;
22160;SDS011;49035;48.812;11.762;2022-09-12T06:03:47;46.88;;;13.15;;
22160;SDS011;49035;48.812;11.762;2022-09-12T06:06:18;30.30;;;13.43;;
22160;SDS011;49035;48.812;11.762;2022-09-12T06:08:48;19.17;;;11.90;;
22160;SDS011;49035;48.812;11.762;2022-09-12T06:11:17;21.10;;;12.98;;
22160;SDS011;49035;48.812;11.762;2022-09-12T06:13:45;24.55;;;13.10;;
22160;SDS011;49035;48.812;11.762;2022-09-12T06:16:12;19.30;;;12.20;;
22160;SDS011;49035;48.812;11.762;2022-09-12T06:18:55;37.22;;;13.00;;
22160;SDS011;49035;48.812;11.762;2022-09-12T06:21:40;25.27;;;13.40;;
22160;SDS011;49035;48.812;11.762;2022-09-12T06:24:06;36.38;;;14.27;;
22160;SDS011;49035;48.812;11.762;2022-09-12T06:26:31;47.28;;;14.23;;
22160;SDS011;49035;48.812;11.762;2022-09-12T06:28:58;33.50;;;14.73;;
22160;SDS011;49035;48.812;11.762;2022-09-12T06:31:25;21.40;;;13.90;;
22160;SDS011;49035;48.812;11.762;2022-09-12T06:33:53;19.92;;;12.50;;
22160;SDS011;49035;48.812;11.762;2022-09-12T06:36:20;101.97;;;14.27;;
22160;SDS011;49035;48.812;11.762;2022-09-12T06:38:54;20.58;;;11.43;;
22160;SDS011;49035;48.812;11.762;2022-09-12T06:41:22;17.23;;;11.18;;
22160;SDS011;49035;48.812;11.762;2022-09-12T06:43:48;43.70;;;11.13;;
22160;SDS011;49035;48.812;11.762;2022-09-12T06:46:14;11.93;;;9.63;;
22160;SDS011;49035;48.812;11.762;2022-09-12T06:48:40;14.23;;;10.13;;
22160;SDS011;49035;48.812;11.762;2022-09-12T06:51:08;22.52;;;12.13;;
22160;SDS011;49035;48.812;11.762;2022-09-12T06:53:35;14.02;;;11.20;;
22160;SDS011;49035;48.812;11.762;2022-09-12T06:56:03;19.25;;;10.40;;
22160;SDS011;49035;48.812;11.762;2022-09-12T06:58:41;24.25;;;11.50;;
22160;SDS011;49035;48.812;11.762;2022-09-12T07:03:34;24.70;;;12.55;;
22160;SDS011;49035;48.812;11.762;2022-09-12T07:06:02;25.92;;;11.10;;
22160;SDS011;49035;48.812;11.762;2022-09-12T07:08:28;74.75;;;14.07;;
22160;SDS011;49035;48.812;11.762;2022-09-12T07:10:55;20.40;;;12.43;;
22160;SDS011;49035;48.812;11.762;2022-09-12T07:13:23;26.25;;;13.77;;
22160;SDS011;49035;48.812;11.762;2022-09-12T07:15:49;33.22;;;11.73;;
22160;SDS011;49035;48.812;11.762;2022-09-12T07:18:15;11.43;;;10.20;;
22160;SDS011;49035;48.812;11.762;2022-09-12T07:20:41;53.78;;;12.18;;
22160;SDS011;49035;48.812;11.762;2022-09-12T07:23:07;31.48;;;10.25;;
22160;SDS011;49035;48.812;11.762;2022-09-12T07:25:33;18.85;;;11.02;;
22160;SDS011;49035;48.812;11.762;2022-09-12T07:27:58;36.92;;;10.55;;
22160;SDS011;49035;48.812;11.762;2022-09-12T07:30:24;22.85;;;9.25;;
22160;SDS011;49035;48.812;11.762;2022-09-12T07:32:51;9.18;;;8.20;;
22160;SDS011;49035;48.812;11.762;2022-09-12T07:35:17;9.70;;;8.63;;
22160;SDS011;49035;48.812;11.762;2022-09-12T07:37:43;10.05;;;8.55;;
22160;SDS011;49035;48.812;11.762;2022-09-12T07:40:09;11.32;;;9.07;;
22160;SDS011;49035;48.812;11.762;2022-09-12T07:42:34;11.07;;;9.40;;
22160;SDS011;49035;48.812;11.762;2022-09-12T07:45:00;11.45;;;10.00;;
22160;SDS011;49035;48.812;11.762;2022-09-12T07:47:26;19.17;;;10.15;;
22160;SDS011;49035;48.812;11.762;2022-09-12T07:49:51;12.38;;;9.70;;
22160;SDS011;49035;48.812;11.762;2022-09-12T07:52:17;22.35;;;9.90;;
22160;SDS011;49035;48.812;11.762;2022-09-12T07:54:42;14.85;;;10.18;;
22160;SDS011;49035;48.812;11.762;2022-09-12T07:57:08;11.30;;;9.80;;
22160;SDS011;49035;48.812;11.762;2022-09-12T07:59:34;11.18;;;9.43;;
22160;SDS011;49035;48.812;11.762;2022-09-12T08:02:00;16.33;;;12.20;;
22160;SDS011;49035;48.812;11.762;2022-09-12T08:04:25;16.55;;;12.90;;
22160;SDS011;49035;48.812;11.762;2022-09-12T08:06:51;26.60;;;13.55;;
22160;SDS011;49035;48.812;11.762;2022-09-12T08:09:17;49.53;;;14.50;;
22160;SDS011;49035;48.812;11.762;2022-09-12T08:11:42;18.92;;;14.63;;
22160;SDS011;49035;48.812;11.762;2022-09-12T08:14:08;24.75;;;14.77;;
22160;SDS011;49035;48.812;11.762;2022-09-12T08:16:34;18.35;;;14.30;;
22160;SDS011;49035;48.812;11.762;2022-09-12T08:19:00;23.27;;;16.67;;
22160;SDS011;49035;48.812;11.762;2022-09-12T08:21:27;20.02;;;15.40;;
22160;SDS011;49035;48.812;11.762;2022-09-12T08:23:58;17.38;;;13.45;;
22160;SDS011;49035;48.812;11.762;2022-09-12T08:26:26;18.63;;;14.32;;
22160;SDS011;49035;48.812;11.762;2022-09-12T08:28:52;14.85;;;11.90;;
22160;SDS011;49035;48.812;11.762;2022-09-12T08:31:19;14.82;;;12.73;;
22160;SDS011;49035;48.812;11.762;2022-09-12T08:33:46;16.30;;;11.85;;
22160;SDS011;49035;48.812;11.762;2022-09-12T08:36:16;14.23;;;11.68;;
22160;SDS011;49035;48.812;11.762;2022-09-12T08:38:47;19.48;;;14.02;;
22160;SDS011;49035;48.812;11.762;2022-09-12T08:49:11;24.38;;;15.48;;
22160;SDS011;49035;48.812;11.762;2022-09-12T08:51:44;25.88;;;17.20;;
22160;SDS011;49035;48.812;11.762;2022-09-12T08:54:17;24.17;;;16.85;;
22160;SDS011;49035;48.812;11.762;2022-09-12T08:56:48;22.23;;;16.65;;
22160;SDS011;49035;48.812;11.762;2022-09-12T08:59:14;23.30;;;19.05;;
22160;SDS011;49035;48.812;11.762;2022-09-12T09:01:40;23.42;;;18.05;;
22160;SDS011;49035;48.812;11.762;2022-09-12T09:04:21;26.55;;;20.05;;
22160;SDS011;49035;48.812;11.762;2022-09-12T09:09:38;30.20;;;22.30;;
22160;SDS011;49035;48.812;11.762;2022-09-12T09:17:48;28.42;;;20.92;;
22160;SDS011;49035;48.812;11.762;2022-09-12T09:25:35;29.10;;;21.35;;
22160;SDS011;49035;48.812;11.762;2022-09-12T09:30:59;34.90;;;22.25;;
22160;SDS011;49035;48.812;11.762;2022-09-12T09:33:27;30.60;;;21.50;;
22160;SDS011;49035;48.812;11.762;2022-09-12T09:39:08;33.50;;;22.92;;
22160;SDS011;49035;48.812;11.762;2022-09-12T09:42:00;29.92;;;20.77;;
22160;SDS011;49035;48.812;11.762;2022-09-12T09:44:48;29.40;;;19.73;;
22160;SDS011;49035;48.812;11.762;2022-09-12T09:47:16;29.55;;;19.15;;
22160;SDS011;49035;48.812;11.762;2022-09-12T09:49:43;20.48;;;16.23;;
22160;SDS011;49035;48.812;11.762;2022-09-12T09:52:10;23.70;;;16.48;;
22160;SDS011;49035;48.812;11.762;2022-09-12T09:54:43;23.83;;;16.02;;
22160;SDS011;49035;48.812;11.762;2022-09-12T09:59:58;26.17;;;18.50;;
22160;SDS011;49035;48.812;11.762;2022-09-12T10:05:56;24.25;;;16.15;;
22160;SDS011;49035;48.812;11.762;2022-09-12T10:08:45;20.52;;;15.52;;
22160;SDS011;49035;48.812;11.762;2022-09-12T10:16:25;18.25;;;12.55;;
22160;SDS011;49035;48.812;11.762;2022-09-12T10:18:54;16.38;;;12.13;;
22160;SDS011;49035;48.812;11.762;2022-09-12T10:21:44;13.80;;;11.77;;
22160;SDS011;49035;48.812;11.762;2022-09-12T10:24:24;15.55;;;11.90;;
22160;SDS011;49035;48.812;11.762;2022-09-12T10:27:06;13.02;;;10.98;;
22160;SDS011;49035;48.812;11.762;2022-09-12T10:29:41;11.40;;;10.07;;
22160;SDS011;49035;48.812;11.762;2022-09-12T10:32:19;12.95;;;9.65;;
22160;SDS011;49035;48.812;11.762;2022-09-12T10:34:57;10.02;;;8.82;;
22160;SDS011;49035;48.812;11.762;2022-09-12T10:37:28;9.95;;;7.60;;
22160;SDS011;49035;48.812;11.762;2022-09-12T10:39:58;10.43;;;8.30;;
22160;SDS011;49035;48.812;11.762;2022-09-12T10:45:39;9.73;;;7.47;;
22160;SDS011;49035;48.812;11.762;2022-09-12T10:48:23;8.95;;;7.03;;
22160;SDS011;49035;48.812;11.762;2022-09-12T10:50:49;8.05;;;7.25;;
22160;SDS011;49035;48.812;11.762;2022-09-12T10:53:19;7.40;;;6.63;;
22160;SDS011;49035;48.812;11.762;2022-09-12T10:58:27;5.53;;;4.88;;
22160;SDS011;49035;48.812;11.762;2022-09-12T11:00:58;4.65;;;3.92;;
22160;SDS011;49035;48.812;11.762;2022-09-12T11:06:35;5.15;;;4.65;;
22160;SDS011;49035;48.812;11.762;2022-09-12T11:09:30;7.22;;;6.03;;
22160;SDS011;49035;48.812;11.762;2022-09-12T11:22:59;6.95;;;4.40;;
22160;SDS011;49035;48.812;11.762;2022-09-12T11:25:40;5.95;;;4.18;;
22160;SDS011;49035;48.812;11.762;2022-09-12T11:28:24;4.28;;;3.88;;
22160;SDS011;49035;48.812;11.762;2022-09-12T11:33:45;8.80;;;3.70;;
22160;SDS011;49035;48.812;11.762;2022-09-12T11:39:09;5.40;;;4.00;;
22160;SDS011;49035;48.812;11.762;2022-09-12T11:41:36;4.15;;;3.63;;
22160;SDS011;49035;48.812;11.762;2022-09-12T11:46:50;5.05;;;4.28;;
22160;SDS011;49035;48.812;11.762;2022-09-12T11:49:17;3.85;;;3.53;;
22160;SDS011;49035;48.812;11.762;2022-09-12T11:51:54;5.70;;;3.97;;
22160;SDS011;49035;48.812;11.762;2022-09-12T11:54:38;5.40;;;4.20;;
22160;SDS011;49035;48.812;11.762;2022-09-12T12:02:26;3.95;;;3.55;;
22160;SDS011;49035;48.812;11.762;2022-09-12T12:07:56;3.88;;;3.40;;
22160;SDS011;49035;48.812;11.762;2022-09-12T12:13:02;3.97;;;3.60;;
22160;SDS011;49035;48.812;11.762;2022-09-12T12:15:34;4.05;;;3.65;;
22160;SDS011;49035;48.812;11.762;2022-09-12T12:18:14;4.18;;;3.78;;
22160;SDS011;49035;48.812;11.762;2022-09-12T12:20:43;5.63;;;4.80;;
22160;SDS011;49035;48.812;11.762;2022-09-12T12:23:25;4.90;;;4.40;;
22160;SDS011;49035;48.812;11.762;2022-09-12T12:25:59;5.07;;;4.10;;
22160;SDS011;49035;48.812;11.762;2022-09-12T12:31:20;4.43;;;4.03;;
22160;SDS011;49035;48.812;11.762;2022-09-12T12:41:56;4.43;;;4.03;;
22160;SDS011;49035;48.812;11.762;2022-09-12T12:47:19;3.83;;;3.42;;
22160;SDS011;49035;48.812;11.762;2022-09-12T12:50:00;4.40;;;4.00;;
22160;SDS011;49035;48.812;11.762;2022-09-12T12:52:41;5.93;;;3.60;;
22160;SDS011;49035;48.812;11.762;2022-09-12T12:55:23;4.60;;;4.13;;
22160;SDS011;49035;48.812;11.762;2022-09-12T12:57:51;5.57;;;3.58;;
22160;SDS011;49035;48.812;11.762;2022-09-12T13:03:28;5.28;;;4.13;;
22160;SDS011;49035;48.812;11.762;2022-09-12T13:05:42;4.18;;;3.78;;
22160;SDS011;49035;48.812;11.762;2022-09-12T13:10:51;3.70;;;3.40;;
22160;SDS011;49035;48.812;11.762;2022-09-12T13:13:33;4.88;;;3.58;;
22160;SDS011;49035;48.812;11.762;2022-09-12T13:16:38;6.68;;;4.47;;
22160;SDS011;49035;48.812;11.762;2022-09-12T13:19:17;4.13;;;3.72;;
22160;SDS011;49035;48.812;11.762;2022-09-12T13:21:54;4.40;;;4.00;;
22160;SDS011;49035;48.812;11.762;2022-09-12T13:24:33;4.50;;;3.85;;
22160;SDS011;49035;48.812;11.762;2022-09-12T13:27:18;5.03;;;3.90;;
22160;SDS011;49035;48.812;11.762;2022-09-12T13:29:45;4.68;;;4.20;;
22160;SDS011;49035;48.812;11.762;2022-09-12T13:32:11;3.97;;;3.60;;
22160;SDS011;49035;48.812;11.762;2022-09-12T13:34:48;4.95;;;4.30;;
22160;SDS011;49035;48.812;11.762;2022-09-12T13:43:03;4.47;;;3.97;;
22160;SDS011;49035;48.812;11.762;2022-09-12T13:45:39;4.00;;;3.70;;
22160;SDS011;49035;48.812;11.762;2022-09-12T13:48:10;4.35;;;3.90;;
22160;SDS011;49035;48.812;11.762;2022-09-12T13:50:50;4.47;;;3.90;;
22160;SDS011;49035;48.812;11.762;2022-09-12T13:53:22;4.95;;;4.53;;
22160;SDS011;49035;48.812;11.762;2022-09-12T13:55:52;3.92;;;3.63;;
22160;SDS011;49035;48.812;11.762;2022-09-12T13:58:22;5.57;;;4.18;;
22160;SDS011;49035;48.812;11.762;2022-09-12T14:01:06;5.28;;;3.88;;
22160;SDS011;49035;48.812;11.762;2022-09-12T14:03:38;4.35;;;3.65;;
22160;SDS011;49035;48.812;11.762;2022-09-12T14:06:23;4.75;;;3.85;;
22160;SDS011;49035;48.812;11.762;2022-09-12T14:08:51;4.82;;;3.97;;
22160;SDS011;49035;48.812;11.762;2022-09-12T14:11:25;3.70;;;3.40;;
22160;SDS011;49035;48.812;11.762;2022-09-12T14:13:52;5.60;;;3.78;;
22160;SDS011;49035;48.812;11.762;2022-09-12T14:16:20;4.53;;;4.13;;
22160;SDS011;49035;48.812;11.762;2022-09-12T14:18:48;4.13;;;3.78;;
22160;SDS011;49035;48.812;11.762;2022-09-12T14:23:58;4.32;;;4.03;;
22160;SDS011;49035;48.812;11.762;2022-09-12T14:26:24;4.70;;;3.92;;
22160;SDS011;49035;48.812;11.762;2022-09-12T14:28:52;4.80;;;4.00;;
22160;SDS011;49035;48.812;11.762;2022-09-12T14:33:47;4.82;;;4.35;;
22160;SDS011;49035;48.812;11.762;2022-09-12T14:36:20;4.60;;;4.20;;
22160;SDS011;49035;48.812;11.762;2022-09-12T14:39:01;5.07;;;3.80;;
22160;SDS011;49035;48.812;11.762;2022-09-12T14:41:30;5.55;;;3.72;;
22160;SDS011;49035;48.812;11.762;2022-09-12T14:44:07;4.57;;;4.15;;
22160;SDS011;49035;48.812;11.762;2022-09-12T14:46:40;3.97;;;3.67;;
22160;SDS011;49035;48.812;11.762;2022-09-12T14:49:08;4.88;;;4.18;;
22160;SDS011;49035;48.812;11.762;2022-09-12T14:57:00;4.85;;;4.03;;
22160;SDS011;49035;48.812;11.762;2022-09-12T14:59:46;4.43;;;4.03;;
22160;SDS011;49035;48.812;11.762;2022-09-12T15:04:50;3.95;;;3.60;;
22160;SDS011;49035;48.812;11.762;2022-09-12T15:07:34;4.13;;;3.72;;
22160;SDS011;49035;48.812;11.762;2022-09-12T15:15:33;4.80;;;3.97;;
22160;SDS011;49035;48.812;11.762;2022-09-12T15:18:02;4.93;;;3.85;;
22160;SDS011;49035;48.812;11.762;2022-09-12T15:20:29;4.55;;;3.80;;
22160;SDS011;49035;48.812;11.762;2022-09-12T15:22:55;3.65;;;3.35;;
22160;SDS011;49035;48.812;11.762;2022-09-12T15:25:20;4.55;;;4.15;;
22160;SDS011;49035;48.812;11.762;2022-09-12T15:27:46;5.20;;;4.53;;
22160;SDS011;49035;48.812;11.762;2022-09-12T15:30:14;6.85;;;4.00;;
22160;SDS011;49035;48.812;11.762;2022-09-12T15:32:40;3.92;;;3.60;;
22160;SDS011;49035;48.812;11.762;2022-09-12T15:35:09;5.50;;;4.40;;
22160;SDS011;49035;48.812;11.762;2022-09-12T15:37:43;4.13;;;3.80;;
22160;SDS011;49035;48.812;11.762;2022-09-12T15:40:10;4.22;;;3.83;;
22160;SDS011;49035;48.812;11.762;2022-09-12T15:42:36;4.85;;;4.10;;
22160;SDS011;49035;48.812;11.762;2022-09-12T15:45:36;3.65;;;3.35;;
22160;SDS011;49035;48.812;11.762;2022-09-12T15:47:56;4.15;;;3.72;;
22160;SDS011;49035;48.812;11.762;2022-09-12T15:50:22;4.13;;;3.80;;
22160;SDS011;49035;48.812;11.762;2022-09-12T15:52:48;4.25;;;3.60;;
22160;SDS011;49035;48.812;11.762;2022-09-12T15:55:15;3.88;;;3.53;;
22160;SDS011;49035;48.812;11.762;2022-09-12T15:57:43;4.43;;;3.80;;
22160;SDS011;49035;48.812;11.762;2022-09-12T16:00:09;3.80;;;3.50;;
22160;SDS011;49035;48.812;11.762;2022-09-12T16:02:36;4.40;;;4.00;;
22160;SDS011;49035;48.812;11.762;2022-09-12T16:05:02;5.03;;;3.97;;
22160;SDS011;49035;48.812;11.762;2022-09-12T16:07:28;3.95;;;3.65;;
22160;SDS011;49035;48.812;11.762;2022-09-12T16:09:54;5.35;;;3.72;;
22160;SDS011;49035;48.812;11.762;2022-09-12T16:12:20;3.92;;;3.63;;
22160;SDS011;49035;48.812;11.762;2022-09-12T16:14:45;4.07;;;3.75;;
22160;SDS011;49035;48.812;11.762;2022-09-12T16:17:11;4.45;;;3.65;;
22160;SDS011;49035;48.812;11.762;2022-09-12T16:19:36;4.38;;;3.85;;
22160;SDS011;49035;48.812;11.762;2022-09-12T16:22:02;4.80;;;4.07;;
22160;SDS011;49035;48.812;11.762;2022-09-12T16:24:28;4.63;;;3.58;;
22160;SDS011;49035;48.812;11.762;2022-09-12T16:26:53;4.40;;;4.00;;
22160;SDS011;49035;48.812;11.762;2022-09-12T16:29:19;4.60;;;4.07;;
22160;SDS011;49035;48.812;11.762;2022-09-12T16:31:44;4.90;;;3.90;;
22160;SDS011;49035;48.812;11.762;2022-09-12T16:36:39;4.57;;;4.18;;
22160;SDS011;49035;48.812;11.762;2022-09-12T16:39:04;4.43;;;3.97;;
22160;SDS011;49035;48.812;11.762;2022-09-12T16:41:31;4.55;;;4.15;;
22160;SDS011;49035;48.812;11.762;2022-09-12T16:43:56;4.68;;;4.28;;
22160;SDS011;49035;48.812;11.762;2022-09-12T16:46:23;6.05;;;4.38;;
22160;SDS011;49035;48.812;11.762;2022-09-12T16:48:53;4.95;;;4.45;;
22160;SDS011;49035;48.812;11.762;2022-09-12T16:51:24;6.68;;;4.22;;
22160;SDS011;49035;48.812;11.762;2022-09-12T16:53:52;4.70;;;4.10;;
22160;SDS011;49035;48.812;11.762;2022-09-12T16:56:19;5.95;;;4.35;;
22160;SDS011;49035;48.812;11.762;2022-09-12T16:58:45;4.38;;;3.97;;
22160;SDS011;49035;48.812;11.762;2022-09-12T17:01:12;11.52;;;4.13;;
22160;SDS011;49035;48.812;11.762;2022-09-12T17:03:41;4.00;;;3.67;;
22160;SDS011;49035;48.812;11.762;2022-09-12T17:06:08;7.38;;;4.38;;
22160;SDS011;49035;48.812;11.762;2022-09-12T17:08:37;9.80;;;5.00;;
22160;SDS011;49035;48.812;11.762;2022-09-12T17:11:05;8.13;;;4.40;;
22160;SDS011;49035;48.812;11.762;2022-09-12T17:13:32;4.78;;;4.38;;
22160;SDS011;49035;48.812;11.762;2022-09-12T17:15:58;6.07;;;4.60;;
22160;SDS011;49035;48.812;11.762;2022-09-12T17:18:24;5.22;;;4.72;;
22160;SDS011;49035;48.812;11.762;2022-09-12T17:20:50;5.45;;;4.82;;
22160;SDS011;49035;48.812;11.762;2022-09-12T17:23:16;8.02;;;5.00;;
22160;SDS011;49035;48.812;11.762;2022-09-12T17:25:46;5.97;;;5.28;;